sensor_id;sensor_type;location;lat;lon;timestamp;P1;durP1;ratioP1;P2;durP2;ratioP2
75823;SDS011;64457;51.976;9.834;2022-11-22T00:00:46;21.60;;;10.97;;
75823;SDS011;64457;51.976;9.834;2022-11-22T00:03:14;26.00;;;9.90;;
75823;SDS011;64457;51.976;9.834;2022-11-22T00:05:42;25.60;;;11.07;;
75823;SDS011;64457;51.976;9.834;2022-11-22T00:08:10;18.67;;;9.43;;
75823;SDS011;64457;51.976;9.834;2022-11-22T00:10:37;24.17;;;11.70;;
75823;SDS011;64457;51.976;9.834;2022-11-22T00:13:05;21.43;;;10.07;;
75823;SDS011;64457;51.976;9.834;2022-11-22T00:15:32;23.00;;;10.60;;
75823;SDS011;64457;51.976;9.834;2022-11-22T00:18:02;21.70;;;10.37;;
75823;SDS011;64457;51.976;9.834;2022-11-22T00:20:29;21.73;;;9.17;;
75823;SDS011;64457;51.976;9.834;2022-11-22T00:22:57;17.30;;;9.90;;
75823;SDS011;64457;51.976;9.834;2022-11-22T00:25:24;23.43;;;9.60;;
75823;SDS011;64457;51.976;9.834;2022-11-22T00:27:52;22.50;;;11.30;;
75823;SDS011;64457;51.976;9.834;2022-11-22T00:30:21;20.20;;;10.60;;
75823;SDS011;64457;51.976;9.834;2022-11-22T00:32:48;22.30;;;10.70;;
75823;SDS011;64457;51.976;9.834;2022-11-22T00:35:17;17.23;;;9.53;;
75823;SDS011;64457;51.976;9.834;2022-11-22T00:37:45;20.13;;;9.40;;
75823;SDS011;64457;51.976;9.834;2022-11-22T00:40:13;21.33;;;10.23;;
75823;SDS011;64457;51.976;9.834;2022-11-22T00:42:41;21.33;;;10.13;;
75823;SDS011;64457;51.976;9.834;2022-11-22T00:45:09;18.87;;;9.00;;
75823;SDS011;64457;51.976;9.834;2022-11-22T00:47:38;16.93;;;8.80;;
75823;SDS011;64457;51.976;9.834;2022-11-22T00:50:06;19.80;;;10.00;;
75823;SDS011;64457;51.976;9.834;2022-11-22T00:52:37;17.70;;;9.60;;
75823;SDS011;64457;51.976;9.834;2022-11-22T00:55:04;20.70;;;9.90;;
75823;SDS011;64457;51.976;9.834;2022-11-22T00:57:33;21.67;;;10.40;;
75823;SDS011;64457;51.976;9.834;2022-11-22T01:00:01;18.07;;;8.77;;
75823;SDS011;64457;51.976;9.834;2022-11-22T01:02:29;16.97;;;9.40;;
75823;SDS011;64457;51.976;9.834;2022-11-22T01:04:58;19.83;;;9.37;;
75823;SDS011;64457;51.976;9.834;2022-11-22T01:07:28;17.23;;;8.50;;
75823;SDS011;64457;51.976;9.834;2022-11-22T01:09:59;16.37;;;8.93;;
75823;SDS011;64457;51.976;9.834;2022-11-22T01:12:27;16.70;;;8.60;;
75823;SDS011;64457;51.976;9.834;2022-11-22T01:14:55;15.40;;;8.33;;
75823;SDS011;64457;51.976;9.834;2022-11-22T01:17:24;17.70;;;8.90;;
75823;SDS011;64457;51.976;9.834;2022-11-22T01:19:53;17.57;;;8.13;;
75823;SDS011;64457;51.976;9.834;2022-11-22T01:22:20;17.40;;;8.30;;
75823;SDS011;64457;51.976;9.834;2022-11-22T01:24:49;16.83;;;8.67;;
75823;SDS011;64457;51.976;9.834;2022-11-22T01:27:18;19.30;;;8.50;;
75823;SDS011;64457;51.976;9.834;2022-11-22T01:29:45;18.70;;;9.00;;
75823;SDS011;64457;51.976;9.834;2022-11-22T01:32:13;20.20;;;8.77;;
75823;SDS011;64457;51.976;9.834;2022-11-22T01:34:41;17.33;;;8.57;;
75823;SDS011;64457;51.976;9.834;2022-11-22T01:37:08;17.53;;;8.67;;
75823;SDS011;64457;51.976;9.834;2022-11-22T01:39:36;21.30;;;8.80;;
75823;SDS011;64457;51.976;9.834;2022-11-22T01:42:04;20.33;;;8.97;;
75823;SDS011;64457;51.976;9.834;2022-11-22T01:44:33;16.40;;;8.30;;
75823;SDS011;64457;51.976;9.834;2022-11-22T01:47:02;18.70;;;8.80;;
75823;SDS011;64457;51.976;9.834;2022-11-22T01:49:36;19.17;;;9.33;;
75823;SDS011;64457;51.976;9.834;2022-11-22T01:52:09;19.27;;;9.63;;
75823;SDS011;64457;51.976;9.834;2022-11-22T01:54:42;17.40;;;8.90;;
75823;SDS011;64457;51.976;9.834;2022-11-22T01:57:20;17.43;;;9.03;;
75823;SDS011;64457;51.976;9.834;2022-11-22T01:59:55;15.27;;;8.10;;
75823;SDS011;64457;51.976;9.834;2022-11-22T02:02:28;16.47;;;8.13;;
75823;SDS011;64457;51.976;9.834;2022-11-22T02:04:55;17.10;;;8.70;;
75823;SDS011;64457;51.976;9.834;2022-11-22T02:07:30;16.60;;;8.47;;
75823;SDS011;64457;51.976;9.834;2022-11-22T02:10:06;14.97;;;8.10;;
75823;SDS011;64457;51.976;9.834;2022-11-22T02:12:36;17.23;;;8.47;;
75823;SDS011;64457;51.976;9.834;2022-11-22T02:15:07;20.10;;;8.77;;
75823;SDS011;64457;51.976;9.834;2022-11-22T02:17:37;16.30;;;8.20;;
75823;SDS011;64457;51.976;9.834;2022-11-22T02:20:05;15.90;;;8.20;;
75823;SDS011;64457;51.976;9.834;2022-11-22T02:22:37;14.90;;;8.50;;
75823;SDS011;64457;51.976;9.834;2022-11-22T02:25:11;18.37;;;9.50;;
75823;SDS011;64457;51.976;9.834;2022-11-22T02:27:46;16.73;;;8.73;;
75823;SDS011;64457;51.976;9.834;2022-11-22T02:30:14;14.87;;;7.57;;
75823;SDS011;64457;51.976;9.834;2022-11-22T02:32:43;15.33;;;8.60;;
75823;SDS011;64457;51.976;9.834;2022-11-22T02:35:16;15.67;;;8.00;;
75823;SDS011;64457;51.976;9.834;2022-11-22T02:37:48;15.57;;;8.30;;
75823;SDS011;64457;51.976;9.834;2022-11-22T02:40:22;15.63;;;7.13;;
75823;SDS011;64457;51.976;9.834;2022-11-22T02:42:54;18.10;;;8.97;;
75823;SDS011;64457;51.976;9.834;2022-11-22T02:45:27;14.70;;;7.60;;
75823;SDS011;64457;51.976;9.834;2022-11-22T02:48:02;16.53;;;8.07;;
75823;SDS011;64457;51.976;9.834;2022-11-22T02:50:32;15.97;;;7.40;;
75823;SDS011;64457;51.976;9.834;2022-11-22T02:52:59;15.40;;;7.90;;
75823;SDS011;64457;51.976;9.834;2022-11-22T02:55:27;15.93;;;8.33;;
75823;SDS011;64457;51.976;9.834;2022-11-22T02:57:56;13.90;;;7.37;;
75823;SDS011;64457;51.976;9.834;2022-11-22T03:00:24;16.20;;;7.40;;
75823;SDS011;64457;51.976;9.834;2022-11-22T03:02:52;12.47;;;6.73;;
75823;SDS011;64457;51.976;9.834;2022-11-22T03:05:20;13.50;;;7.73;;
75823;SDS011;64457;51.976;9.834;2022-11-22T03:07:48;15.10;;;7.70;;
75823;SDS011;64457;51.976;9.834;2022-11-22T03:10:16;17.90;;;8.60;;
75823;SDS011;64457;51.976;9.834;2022-11-22T03:12:44;13.63;;;7.33;;
75823;SDS011;64457;51.976;9.834;2022-11-22T03:15:13;18.23;;;7.80;;
75823;SDS011;64457;51.976;9.834;2022-11-22T03:17:41;15.00;;;6.93;;
75823;SDS011;64457;51.976;9.834;2022-11-22T03:20:08;17.80;;;7.97;;
75823;SDS011;64457;51.976;9.834;2022-11-22T03:22:36;14.40;;;7.90;;
75823;SDS011;64457;51.976;9.834;2022-11-22T03:25:04;18.80;;;7.40;;
75823;SDS011;64457;51.976;9.834;2022-11-22T03:27:33;14.70;;;7.70;;
75823;SDS011;64457;51.976;9.834;2022-11-22T03:30:01;15.27;;;7.63;;
75823;SDS011;64457;51.976;9.834;2022-11-22T03:32:31;15.37;;;7.93;;
75823;SDS011;64457;51.976;9.834;2022-11-22T03:34:59;15.90;;;8.37;;
75823;SDS011;64457;51.976;9.834;2022-11-22T03:37:26;14.33;;;7.87;;
75823;SDS011;64457;51.976;9.834;2022-11-22T03:39:54;14.83;;;7.47;;
75823;SDS011;64457;51.976;9.834;2022-11-22T03:42:22;17.73;;;9.30;;
75823;SDS011;64457;51.976;9.834;2022-11-22T03:44:49;17.30;;;7.97;;
75823;SDS011;64457;51.976;9.834;2022-11-22T03:47:17;15.47;;;8.20;;
75823;SDS011;64457;51.976;9.834;2022-11-22T03:49:48;15.93;;;7.50;;
75823;SDS011;64457;51.976;9.834;2022-11-22T03:52:15;15.97;;;8.23;;
75823;SDS011;64457;51.976;9.834;2022-11-22T03:54:44;17.13;;;7.90;;
75823;SDS011;64457;51.976;9.834;2022-11-22T03:57:15;16.57;;;8.70;;
75823;SDS011;64457;51.976;9.834;2022-11-22T03:59:43;17.03;;;8.87;;
75823;SDS011;64457;51.976;9.834;2022-11-22T04:02:11;17.20;;;8.40;;
75823;SDS011;64457;51.976;9.834;2022-11-22T04:04:39;18.90;;;9.10;;
75823;SDS011;64457;51.976;9.834;2022-11-22T04:07:08;17.10;;;8.27;;
75823;SDS011;64457;51.976;9.834;2022-11-22T04:09:35;16.83;;;8.70;;
75823;SDS011;64457;51.976;9.834;2022-11-22T04:12:03;16.27;;;8.73;;
75823;SDS011;64457;51.976;9.834;2022-11-22T04:14:32;16.47;;;8.30;;
75823;SDS011;64457;51.976;9.834;2022-11-22T04:17:17;18.17;;;9.13;;
75823;SDS011;64457;51.976;9.834;2022-11-22T04:20:05;16.87;;;8.97;;
75823;SDS011;64457;51.976;9.834;2022-11-22T04:22:56;18.00;;;9.07;;
75823;SDS011;64457;51.976;9.834;2022-11-22T04:25:25;18.20;;;8.80;;
75823;SDS011;64457;51.976;9.834;2022-11-22T04:27:54;16.37;;;8.57;;
75823;SDS011;64457;51.976;9.834;2022-11-22T04:30:22;20.07;;;9.63;;
75823;SDS011;64457;51.976;9.834;2022-11-22T04:33:12;18.50;;;9.00;;
75823;SDS011;64457;51.976;9.834;2022-11-22T04:35:40;16.30;;;8.90;;
75823;SDS011;64457;51.976;9.834;2022-11-22T04:38:10;18.33;;;10.23;;
75823;SDS011;64457;51.976;9.834;2022-11-22T04:40:38;16.40;;;9.20;;
75823;SDS011;64457;51.976;9.834;2022-11-22T04:43:06;20.13;;;9.20;;
75823;SDS011;64457;51.976;9.834;2022-11-22T04:45:53;21.50;;;10.03;;
75823;SDS011;64457;51.976;9.834;2022-11-22T04:48:22;21.33;;;10.83;;
75823;SDS011;64457;51.976;9.834;2022-11-22T04:50:50;18.20;;;9.07;;
75823;SDS011;64457;51.976;9.834;2022-11-22T04:53:36;18.57;;;9.73;;
75823;SDS011;64457;51.976;9.834;2022-11-22T04:56:03;21.43;;;9.70;;
75823;SDS011;64457;51.976;9.834;2022-11-22T04:58:31;20.20;;;9.90;;
75823;SDS011;64457;51.976;9.834;2022-11-22T05:00:59;20.77;;;10.30;;
75823;SDS011;64457;51.976;9.834;2022-11-22T05:03:26;21.80;;;10.40;;
75823;SDS011;64457;51.976;9.834;2022-11-22T05:05:54;18.03;;;9.10;;
75823;SDS011;64457;51.976;9.834;2022-11-22T05:08:22;20.53;;;10.50;;
75823;SDS011;64457;51.976;9.834;2022-11-22T05:10:51;17.27;;;8.37;;
75823;SDS011;64457;51.976;9.834;2022-11-22T05:13:22;19.53;;;9.80;;
75823;SDS011;64457;51.976;9.834;2022-11-22T05:15:56;17.13;;;9.63;;
75823;SDS011;64457;51.976;9.834;2022-11-22T05:18:25;18.43;;;9.60;;
75823;SDS011;64457;51.976;9.834;2022-11-22T05:20:53;19.70;;;9.30;;
75823;SDS011;64457;51.976;9.834;2022-11-22T05:23:22;25.93;;;9.87;;
75823;SDS011;64457;51.976;9.834;2022-11-22T05:26:08;19.23;;;9.97;;
75823;SDS011;64457;51.976;9.834;2022-11-22T05:28:37;20.20;;;9.60;;
75823;SDS011;64457;51.976;9.834;2022-11-22T05:31:06;19.40;;;10.20;;
75823;SDS011;64457;51.976;9.834;2022-11-22T05:33:35;16.33;;;9.00;;
75823;SDS011;64457;51.976;9.834;2022-11-22T05:36:04;19.87;;;10.77;;
75823;SDS011;64457;51.976;9.834;2022-11-22T05:38:34;19.83;;;9.70;;
75823;SDS011;64457;51.976;9.834;2022-11-22T05:41:02;16.00;;;8.50;;
75823;SDS011;64457;51.976;9.834;2022-11-22T05:43:34;20.83;;;10.60;;
75823;SDS011;64457;51.976;9.834;2022-11-22T05:46:05;23.00;;;10.80;;
75823;SDS011;64457;51.976;9.834;2022-11-22T05:48:36;18.90;;;9.90;;
75823;SDS011;64457;51.976;9.834;2022-11-22T05:51:06;20.00;;;9.93;;
75823;SDS011;64457;51.976;9.834;2022-11-22T05:53:37;22.63;;;12.20;;
75823;SDS011;64457;51.976;9.834;2022-11-22T05:56:06;21.33;;;9.80;;
75823;SDS011;64457;51.976;9.834;2022-11-22T05:58:37;20.90;;;10.63;;
75823;SDS011;64457;51.976;9.834;2022-11-22T06:01:05;19.33;;;10.30;;
75823;SDS011;64457;51.976;9.834;2022-11-22T06:03:34;17.57;;;9.80;;
75823;SDS011;64457;51.976;9.834;2022-11-22T06:06:04;22.57;;;11.00;;
75823;SDS011;64457;51.976;9.834;2022-11-22T06:08:33;20.90;;;11.17;;
75823;SDS011;64457;51.976;9.834;2022-11-22T06:11:03;21.63;;;9.80;;
75823;SDS011;64457;51.976;9.834;2022-11-22T06:13:33;21.63;;;10.50;;
75823;SDS011;64457;51.976;9.834;2022-11-22T06:16:05;21.00;;;10.77;;
75823;SDS011;64457;51.976;9.834;2022-11-22T06:18:34;22.90;;;11.40;;
75823;SDS011;64457;51.976;9.834;2022-11-22T06:21:03;21.33;;;10.43;;
75823;SDS011;64457;51.976;9.834;2022-11-22T06:23:33;20.90;;;10.90;;
75823;SDS011;64457;51.976;9.834;2022-11-22T06:26:02;18.30;;;9.97;;
75823;SDS011;64457;51.976;9.834;2022-11-22T06:28:34;22.10;;;10.60;;
75823;SDS011;64457;51.976;9.834;2022-11-22T06:31:05;21.90;;;10.20;;
75823;SDS011;64457;51.976;9.834;2022-11-22T06:33:36;21.53;;;11.33;;
75823;SDS011;64457;51.976;9.834;2022-11-22T06:36:04;20.23;;;10.80;;
75823;SDS011;64457;51.976;9.834;2022-11-22T06:38:34;24.83;;;12.23;;
75823;SDS011;64457;51.976;9.834;2022-11-22T06:41:03;19.57;;;9.93;;
75823;SDS011;64457;51.976;9.834;2022-11-22T06:43:33;20.73;;;10.10;;
75823;SDS011;64457;51.976;9.834;2022-11-22T06:46:05;24.57;;;11.37;;
75823;SDS011;64457;51.976;9.834;2022-11-22T06:48:34;22.73;;;11.53;;
75823;SDS011;64457;51.976;9.834;2022-11-22T06:51:04;21.17;;;11.50;;
75823;SDS011;64457;51.976;9.834;2022-11-22T06:53:36;22.50;;;11.40;;
75823;SDS011;64457;51.976;9.834;2022-11-22T06:56:05;22.47;;;11.73;;
75823;SDS011;64457;51.976;9.834;2022-11-22T06:58:35;22.33;;;11.17;;
75823;SDS011;64457;51.976;9.834;2022-11-22T07:01:03;26.03;;;12.40;;
75823;SDS011;64457;51.976;9.834;2022-11-22T07:03:34;26.83;;;11.60;;
75823;SDS011;64457;51.976;9.834;2022-11-22T07:06:04;22.70;;;11.17;;
75823;SDS011;64457;51.976;9.834;2022-11-22T07:08:33;26.00;;;12.77;;
75823;SDS011;64457;51.976;9.834;2022-11-22T07:11:02;22.23;;;11.50;;
75823;SDS011;64457;51.976;9.834;2022-11-22T07:13:31;19.60;;;10.67;;
75823;SDS011;64457;51.976;9.834;2022-11-22T07:16:00;23.27;;;12.50;;
75823;SDS011;64457;51.976;9.834;2022-11-22T07:18:32;22.53;;;12.13;;
75823;SDS011;64457;51.976;9.834;2022-11-22T07:21:00;23.90;;;12.13;;
75823;SDS011;64457;51.976;9.834;2022-11-22T07:23:31;21.10;;;10.80;;
75823;SDS011;64457;51.976;9.834;2022-11-22T07:25:59;20.03;;;11.10;;
75823;SDS011;64457;51.976;9.834;2022-11-22T07:28:26;21.90;;;10.83;;
75823;SDS011;64457;51.976;9.834;2022-11-22T07:30:57;22.37;;;10.60;;
75823;SDS011;64457;51.976;9.834;2022-11-22T07:33:26;19.77;;;10.60;;
75823;SDS011;64457;51.976;9.834;2022-11-22T07:36:01;26.70;;;11.70;;
75823;SDS011;64457;51.976;9.834;2022-11-22T07:38:31;20.97;;;11.27;;
75823;SDS011;64457;51.976;9.834;2022-11-22T07:40:59;20.90;;;10.70;;
75823;SDS011;64457;51.976;9.834;2022-11-22T07:43:27;21.37;;;10.27;;
75823;SDS011;64457;51.976;9.834;2022-11-22T07:45:57;20.03;;;10.53;;
75823;SDS011;64457;51.976;9.834;2022-11-22T07:48:25;21.30;;;10.83;;
75823;SDS011;64457;51.976;9.834;2022-11-22T07:50:53;20.07;;;10.00;;
75823;SDS011;64457;51.976;9.834;2022-11-22T07:53:22;18.50;;;9.80;;
75823;SDS011;64457;51.976;9.834;2022-11-22T07:55:50;24.90;;;9.73;;
75823;SDS011;64457;51.976;9.834;2022-11-22T07:58:17;16.83;;;9.70;;
75823;SDS011;64457;51.976;9.834;2022-11-22T08:00:45;20.27;;;9.27;;
75823;SDS011;64457;51.976;9.834;2022-11-22T08:03:13;19.73;;;9.60;;
75823;SDS011;64457;51.976;9.834;2022-11-22T08:05:40;19.67;;;10.30;;
75823;SDS011;64457;51.976;9.834;2022-11-22T08:08:10;20.67;;;9.50;;
75823;SDS011;64457;51.976;9.834;2022-11-22T08:10:37;19.83;;;9.50;;
75823;SDS011;64457;51.976;9.834;2022-11-22T08:13:05;22.90;;;9.93;;
75823;SDS011;64457;51.976;9.834;2022-11-22T08:15:33;18.30;;;8.70;;
75823;SDS011;64457;51.976;9.834;2022-11-22T08:18:01;18.70;;;10.13;;
75823;SDS011;64457;51.976;9.834;2022-11-22T08:20:28;20.47;;;10.37;;
75823;SDS011;64457;51.976;9.834;2022-11-22T08:22:56;19.40;;;9.30;;
75823;SDS011;64457;51.976;9.834;2022-11-22T08:25:25;17.87;;;9.53;;
75823;SDS011;64457;51.976;9.834;2022-11-22T08:27:53;15.43;;;8.80;;
75823;SDS011;64457;51.976;9.834;2022-11-22T08:30:20;16.37;;;9.30;;
75823;SDS011;64457;51.976;9.834;2022-11-22T08:32:48;15.83;;;8.83;;
75823;SDS011;64457;51.976;9.834;2022-11-22T08:35:19;24.43;;;9.27;;
75823;SDS011;64457;51.976;9.834;2022-11-22T08:37:47;19.43;;;9.70;;
75823;SDS011;64457;51.976;9.834;2022-11-22T08:40:15;16.40;;;8.60;;
75823;SDS011;64457;51.976;9.834;2022-11-22T08:42:44;16.85;;;9.10;;
75823;SDS011;64457;51.976;9.834;2022-11-22T08:45:13;19.60;;;9.33;;
75823;SDS011;64457;51.976;9.834;2022-11-22T08:47:41;18.30;;;9.47;;
75823;SDS011;64457;51.976;9.834;2022-11-22T08:50:08;19.67;;;9.30;;
75823;SDS011;64457;51.976;9.834;2022-11-22T08:52:36;18.43;;;8.30;;
75823;SDS011;64457;51.976;9.834;2022-11-22T08:55:04;20.87;;;8.50;;
75823;SDS011;64457;51.976;9.834;2022-11-22T08:57:34;14.63;;;8.57;;
75823;SDS011;64457;51.976;9.834;2022-11-22T09:00:06;15.00;;;8.47;;
75823;SDS011;64457;51.976;9.834;2022-11-22T09:02:36;19.87;;;8.57;;
75823;SDS011;64457;51.976;9.834;2022-11-22T09:05:04;18.57;;;8.10;;
75823;SDS011;64457;51.976;9.834;2022-11-22T09:07:31;16.63;;;8.30;;
75823;SDS011;64457;51.976;9.834;2022-11-22T09:09:59;15.53;;;8.33;;
75823;SDS011;64457;51.976;9.834;2022-11-22T09:12:28;16.43;;;8.50;;
75823;SDS011;64457;51.976;9.834;2022-11-22T09:14:56;13.97;;;8.93;;
75823;SDS011;64457;51.976;9.834;2022-11-22T09:17:25;15.97;;;8.20;;
75823;SDS011;64457;51.976;9.834;2022-11-22T09:19:53;15.50;;;7.60;;
75823;SDS011;64457;51.976;9.834;2022-11-22T09:22:22;14.50;;;7.70;;
75823;SDS011;64457;51.976;9.834;2022-11-22T09:24:50;15.60;;;7.67;;
75823;SDS011;64457;51.976;9.834;2022-11-22T09:27:17;13.53;;;7.80;;
75823;SDS011;64457;51.976;9.834;2022-11-22T09:29:45;14.80;;;6.97;;
75823;SDS011;64457;51.976;9.834;2022-11-22T09:32:13;22.77;;;8.27;;
75823;SDS011;64457;51.976;9.834;2022-11-22T09:34:42;15.00;;;8.00;;
75823;SDS011;64457;51.976;9.834;2022-11-22T09:37:10;15.43;;;6.80;;
75823;SDS011;64457;51.976;9.834;2022-11-22T09:39:41;13.10;;;7.33;;
75823;SDS011;64457;51.976;9.834;2022-11-22T09:42:19;13.80;;;7.27;;
75823;SDS011;64457;51.976;9.834;2022-11-22T09:45:11;14.67;;;7.80;;
75823;SDS011;64457;51.976;9.834;2022-11-22T09:47:57;15.70;;;7.63;;
75823;SDS011;64457;51.976;9.834;2022-11-22T09:50:35;14.30;;;7.47;;
75823;SDS011;64457;51.976;9.834;2022-11-22T09:53:15;15.50;;;7.17;;
75823;SDS011;64457;51.976;9.834;2022-11-22T09:55:51;13.37;;;6.57;;
75823;SDS011;64457;51.976;9.834;2022-11-22T09:58:25;15.17;;;7.60;;
75823;SDS011;64457;51.976;9.834;2022-11-22T10:01:00;14.13;;;7.83;;
75823;SDS011;64457;51.976;9.834;2022-11-22T10:03:36;18.80;;;9.30;;
75823;SDS011;64457;51.976;9.834;2022-11-22T10:06:13;19.80;;;9.33;;
75823;SDS011;64457;51.976;9.834;2022-11-22T10:08:50;18.17;;;8.40;;
75823;SDS011;64457;51.976;9.834;2022-11-22T10:11:28;14.17;;;8.07;;
75823;SDS011;64457;51.976;9.834;2022-11-22T10:14:05;14.60;;;7.83;;
75823;SDS011;64457;51.976;9.834;2022-11-22T10:16:46;14.10;;;7.60;;
75823;SDS011;64457;51.976;9.834;2022-11-22T10:19:22;14.70;;;7.40;;
75823;SDS011;64457;51.976;9.834;2022-11-22T10:21:57;13.77;;;7.60;;
75823;SDS011;64457;51.976;9.834;2022-11-22T10:24:25;16.63;;;7.83;;
75823;SDS011;64457;51.976;9.834;2022-11-22T10:26:55;13.30;;;7.90;;
75823;SDS011;64457;51.976;9.834;2022-11-22T10:29:27;15.20;;;7.80;;
75823;SDS011;64457;51.976;9.834;2022-11-22T10:32:06;16.60;;;7.27;;
75823;SDS011;64457;51.976;9.834;2022-11-22T10:34:45;13.00;;;7.00;;
75823;SDS011;64457;51.976;9.834;2022-11-22T10:37:34;19.47;;;7.93;;
75823;SDS011;64457;51.976;9.834;2022-11-22T10:40:12;15.57;;;7.30;;
75823;SDS011;64457;51.976;9.834;2022-11-22T10:42:54;19.60;;;7.60;;
75823;SDS011;64457;51.976;9.834;2022-11-22T10:45:48;13.27;;;6.80;;
75823;SDS011;64457;51.976;9.834;2022-11-22T10:48:24;16.90;;;7.30;;
75823;SDS011;64457;51.976;9.834;2022-11-22T10:51:00;14.00;;;7.67;;
75823;SDS011;64457;51.976;9.834;2022-11-22T10:53:46;17.10;;;7.93;;
75823;SDS011;64457;51.976;9.834;2022-11-22T10:56:25;14.93;;;7.43;;
75823;SDS011;64457;51.976;9.834;2022-11-22T10:59:04;13.13;;;6.13;;
75823;SDS011;64457;51.976;9.834;2022-11-22T11:01:51;14.10;;;7.03;;
75823;SDS011;64457;51.976;9.834;2022-11-22T11:04:27;12.90;;;6.60;;
75823;SDS011;64457;51.976;9.834;2022-11-22T11:06:58;12.97;;;7.17;;
75823;SDS011;64457;51.976;9.834;2022-11-22T11:09:31;16.53;;;7.57;;
75823;SDS011;64457;51.976;9.834;2022-11-22T11:12:05;14.83;;;6.90;;
75823;SDS011;64457;51.976;9.834;2022-11-22T11:14:43;13.07;;;6.90;;
75823;SDS011;64457;51.976;9.834;2022-11-22T11:17:15;16.13;;;7.03;;
75823;SDS011;64457;51.976;9.834;2022-11-22T11:19:51;16.83;;;7.37;;
75823;SDS011;64457;51.976;9.834;2022-11-22T11:22:23;14.53;;;7.07;;
75823;SDS011;64457;51.976;9.834;2022-11-22T11:24:53;15.60;;;6.30;;
75823;SDS011;64457;51.976;9.834;2022-11-22T11:27:21;11.73;;;6.00;;
75823;SDS011;64457;51.976;9.834;2022-11-22T11:29:58;11.20;;;5.80;;
75823;SDS011;64457;51.976;9.834;2022-11-22T11:32:41;21.97;;;5.63;;
75823;SDS011;64457;51.976;9.834;2022-11-22T11:35:18;13.93;;;6.63;;
75823;SDS011;64457;51.976;9.834;2022-11-22T11:37:48;11.57;;;5.23;;
75823;SDS011;64457;51.976;9.834;2022-11-22T11:40:27;12.13;;;5.33;;
75823;SDS011;64457;51.976;9.834;2022-11-22T11:43:14;13.70;;;6.00;;
75823;SDS011;64457;51.976;9.834;2022-11-22T11:45:45;10.80;;;4.97;;
75823;SDS011;64457;51.976;9.834;2022-11-22T11:48:26;11.97;;;5.70;;
75823;SDS011;64457;51.976;9.834;2022-11-22T11:51:09;12.10;;;5.13;;
75823;SDS011;64457;51.976;9.834;2022-11-22T11:53:48;13.07;;;5.70;;
75823;SDS011;64457;51.976;9.834;2022-11-22T11:56:29;12.87;;;5.40;;
75823;SDS011;64457;51.976;9.834;2022-11-22T11:59:16;10.37;;;4.83;;
75823;SDS011;64457;51.976;9.834;2022-11-22T12:01:56;16.70;;;6.30;;
75823;SDS011;64457;51.976;9.834;2022-11-22T12:04:30;11.93;;;4.60;;
75823;SDS011;64457;51.976;9.834;2022-11-22T12:07:03;10.70;;;4.70;;
75823;SDS011;64457;51.976;9.834;2022-11-22T12:09:45;13.73;;;4.33;;
75823;SDS011;64457;51.976;9.834;2022-11-22T12:12:30;11.77;;;5.10;;
75823;SDS011;64457;51.976;9.834;2022-11-22T12:15:11;12.70;;;5.80;;
75823;SDS011;64457;51.976;9.834;2022-11-22T12:17:51;15.73;;;5.87;;
75823;SDS011;64457;51.976;9.834;2022-11-22T12:20:25;12.17;;;5.97;;
75823;SDS011;64457;51.976;9.834;2022-11-22T12:23:08;12.87;;;5.00;;
75823;SDS011;64457;51.976;9.834;2022-11-22T12:25:43;12.27;;;4.80;;
75823;SDS011;64457;51.976;9.834;2022-11-22T12:28:18;16.70;;;5.47;;
75823;SDS011;64457;51.976;9.834;2022-11-22T12:30:50;12.43;;;4.67;;
75823;SDS011;64457;51.976;9.834;2022-11-22T12:33:23;13.83;;;5.57;;
75823;SDS011;64457;51.976;9.834;2022-11-22T12:35:55;18.97;;;4.87;;
75823;SDS011;64457;51.976;9.834;2022-11-22T12:38:24;9.73;;;4.67;;
75823;SDS011;64457;51.976;9.834;2022-11-22T12:41:00;18.10;;;7.37;;
75823;SDS011;64457;51.976;9.834;2022-11-22T12:43:35;12.03;;;5.80;;
75823;SDS011;64457;51.976;9.834;2022-11-22T12:46:11;18.43;;;8.33;;
75823;SDS011;64457;51.976;9.834;2022-11-22T12:48:48;15.70;;;7.57;;
75823;SDS011;64457;51.976;9.834;2022-11-22T12:51:22;16.20;;;6.23;;
75823;SDS011;64457;51.976;9.834;2022-11-22T12:53:54;16.63;;;4.83;;
75823;SDS011;64457;51.976;9.834;2022-11-22T12:56:28;10.70;;;4.90;;
75823;SDS011;64457;51.976;9.834;2022-11-22T12:59:05;14.60;;;3.53;;
75823;SDS011;64457;51.976;9.834;2022-11-22T13:01:44;11.97;;;5.03;;
75823;SDS011;64457;51.976;9.834;2022-11-22T13:04:18;10.77;;;4.47;;
75823;SDS011;64457;51.976;9.834;2022-11-22T13:06:53;8.30;;;3.60;;
75823;SDS011;64457;51.976;9.834;2022-11-22T13:09:29;9.73;;;4.13;;
75823;SDS011;64457;51.976;9.834;2022-11-22T13:12:02;16.23;;;5.50;;
75823;SDS011;64457;51.976;9.834;2022-11-22T13:14:37;13.17;;;5.03;;
75823;SDS011;64457;51.976;9.834;2022-11-22T13:17:07;15.70;;;5.93;;
75823;SDS011;64457;51.976;9.834;2022-11-22T13:19:39;11.60;;;4.17;;
75823;SDS011;64457;51.976;9.834;2022-11-22T13:22:13;11.43;;;4.37;;
75823;SDS011;64457;51.976;9.834;2022-11-22T13:24:52;13.03;;;5.10;;
75823;SDS011;64457;51.976;9.834;2022-11-22T13:27:34;12.00;;;5.77;;
75823;SDS011;64457;51.976;9.834;2022-11-22T13:30:15;11.00;;;4.10;;
75823;SDS011;64457;51.976;9.834;2022-11-22T13:32:46;10.93;;;4.30;;
75823;SDS011;64457;51.976;9.834;2022-11-22T13:35:21;10.53;;;4.30;;
75823;SDS011;64457;51.976;9.834;2022-11-22T13:37:55;11.33;;;4.53;;
75823;SDS011;64457;51.976;9.834;2022-11-22T13:40:26;12.10;;;4.57;;
75823;SDS011;64457;51.976;9.834;2022-11-22T13:49:29;9.73;;;4.40;;
75823;SDS011;64457;51.976;9.834;2022-11-22T13:52:03;9.23;;;4.07;;
75823;SDS011;64457;51.976;9.834;2022-11-22T14:07:29;14.33;;;4.70;;
75823;SDS011;64457;51.976;9.834;2022-11-22T14:10:04;12.63;;;4.90;;
75823;SDS011;64457;51.976;9.834;2022-11-22T14:13:12;13.13;;;4.70;;
75823;SDS011;64457;51.976;9.834;2022-11-22T14:16:06;20.03;;;5.93;;
75823;SDS011;64457;51.976;9.834;2022-11-22T14:18:58;12.70;;;4.90;;
75823;SDS011;64457;51.976;9.834;2022-11-22T14:21:46;14.57;;;5.40;;
75823;SDS011;64457;51.976;9.834;2022-11-22T14:24:37;9.37;;;4.40;;
75823;SDS011;64457;51.976;9.834;2022-11-22T14:27:34;15.00;;;5.10;;
75823;SDS011;64457;51.976;9.834;2022-11-22T14:30:15;16.33;;;5.23;;
75823;SDS011;64457;51.976;9.834;2022-11-22T14:32:47;19.70;;;5.63;;
75823;SDS011;64457;51.976;9.834;2022-11-22T14:35:23;16.83;;;5.33;;
75823;SDS011;64457;51.976;9.834;2022-11-22T14:44:15;16.00;;;5.70;;
75823;SDS011;64457;51.976;9.834;2022-11-22T14:46:50;14.30;;;5.17;;
75823;SDS011;64457;51.976;9.834;2022-11-22T14:49:28;13.57;;;5.63;;
75823;SDS011;64457;51.976;9.834;2022-11-22T14:52:08;14.23;;;4.90;;
75823;SDS011;64457;51.976;9.834;2022-11-22T14:54:47;19.60;;;4.90;;
75823;SDS011;64457;51.976;9.834;2022-11-22T14:57:21;11.77;;;4.33;;
75823;SDS011;64457;51.976;9.834;2022-11-22T15:00:04;11.80;;;4.70;;
75823;SDS011;64457;51.976;9.834;2022-11-22T15:02:59;11.10;;;4.60;;
75823;SDS011;64457;51.976;9.834;2022-11-22T15:06:12;10.03;;;4.60;;
75823;SDS011;64457;51.976;9.834;2022-11-22T15:09:00;12.53;;;5.60;;
75823;SDS011;64457;51.976;9.834;2022-11-22T15:12:00;16.67;;;5.13;;
75823;SDS011;64457;51.976;9.834;2022-11-22T15:17:49;11.00;;;4.70;;
75823;SDS011;64457;51.976;9.834;2022-11-22T15:20:30;11.00;;;4.80;;
75823;SDS011;64457;51.976;9.834;2022-11-22T15:23:00;12.50;;;4.93;;
75823;SDS011;64457;51.976;9.834;2022-11-22T15:25:36;10.80;;;5.17;;
75823;SDS011;64457;51.976;9.834;2022-11-22T15:28:03;12.03;;;4.97;;
75823;SDS011;64457;51.976;9.834;2022-11-22T15:30:31;13.40;;;5.07;;
75823;SDS011;64457;51.976;9.834;2022-11-22T15:32:59;11.57;;;5.13;;